NCAR-RAP Real-Time Weather Data

Output produced by METARs form (06 May 2021  16:39 UTC)
found at http://weather.rap.ucar.edu/surface/
 
KHSV 061553Z 01006KT 10SM FEW045 FEW250 19/08 A3017 RMK AO2 SLP212 T01890083
KHSV 061453Z 01006KT 10SM FEW040 FEW200 18/07 A3018 RMK AO2 SLP217 T01780072 51004
KHSV 061353Z 03005KT 10SM FEW200 16/08 A3018 RMK AO2 SLP216 T01560083
KHSV 061253Z VRB04KT 10SM FEW200 13/09 A3019 RMK AO2 SLP219 T01280094
KHSV 061153Z 29003KT 10SM FEW170 09/09 A3017 RMK AO2 SLP213 T00940089 10111 20078 53017
KHSV 061053Z 32005KT 10SM FEW250 08/08 A3015 RMK AO2 SLP205 T00830078
KHSV 060953Z AUTO 00000KT 7SM CLR 08/08 A3012 RMK AO2 SLP197 T00780078
KHSV 060853Z AUTO 00000KT 10SM CLR 09/08 A3012 RMK AO2 SLP195 T00890083 53001
KHSV 060753Z AUTO 00000KT 10SM CLR 09/08 A3010 RMK AO2 SLP190 T00940083
KHSV 060653Z AUTO 34003KT 10SM CLR 10/09 A3011 RMK AO2 SLP193 T01000094
KHSV 060553Z AUTO 00000KT 10SM CLR 11/09 A3011 RMK AO2 SLP194 T01110094 10183 20111 402170111 58003
KHSV 060453Z 36004KT 10SM CLR 13/09 A3013 RMK AO2 SLP199 T01280094
KHSV 060353Z 02007KT 10SM CLR 13/10 A3012 RMK AO2 SLP196 T01330100
KHSV 060253Z 36004KT 10SM CLR 14/10 A3012 RMK AO2 SLP197 T01440100 52017
KHSV 060153Z 01006KT 10SM CLR 15/11 A3010 RMK AO2 SLP191 T01500106